Time;durP1;ratioP1;P1;durP2;ratioP2;P2;SDS_P1;SDS_P2;PMS_P1;PMS_P2;Temp;Humidity;BMP_temperature;BMP_pressure;BME280_temperature;BME280_humidity;BME280_pressure;Samples;Min_cycle;Max_cycle;Signal;HPM_P1;HPM_P2
2021/07/09 00:01:48;;;;;;;12.77;11.40;;;19.70;99.90;;;;;;5070392;28;20565;-83
2021/07/09 00:04:15;;;;;;;11.47;10.37;;;19.70;99.90;;;;;;5062731;28;20489;-82
2021/07/09 00:06:43;;;;;;;11.87;9.97;;;19.60;99.90;;;;;;5069234;28;20548;-82
2021/07/09 00:09:11;;;;;;;18.33;10.80;;;19.60;99.90;;;;;;5069895;28;20470;-83
2021/07/09 00:11:41;;;;;;;13.07;10.80;;;19.60;99.90;;;;;;5068470;28;20470;-83
2021/07/09 00:14:08;;;;;;;11.47;10.47;;;19.60;99.90;;;;;;5067531;28;20458;-84
2021/07/09 00:16:36;;;;;;;10.43;9.50;;;19.60;99.90;;;;;;5070332;28;20537;-83
2021/07/09 00:19:04;;;;;;;12.80;10.27;;;19.60;99.90;;;;;;5067047;28;20971;-82
2021/07/09 00:21:32;;;;;;;13.77;12.00;;;19.60;99.90;;;;;;5070262;28;20461;-83
2021/07/09 00:24:01;;;;;;;16.50;11.30;;;19.60;99.90;;;;;;5068085;28;20896;-82
2021/07/09 00:26:28;;;;;;;12.10;10.90;;;19.50;99.90;;;;;;5070185;28;20462;-83
2021/07/09 00:28:57;;;;;;;11.43;10.23;;;19.60;99.90;;;;;;5070024;28;20462;-84
2021/07/09 00:31:24;;;;;;;13.33;11.93;;;19.60;99.90;;;;;;5064779;28;20472;-83
2021/07/09 00:33:51;;;;;;;11.70;10.50;;;19.60;99.90;;;;;;5069538;28;20462;-84
2021/07/09 00:36:19;;;;;;;12.10;10.97;;;19.50;99.90;;;;;;5067160;28;20962;-82
2021/07/09 00:38:45;;;;;;;13.83;11.43;;;19.50;99.90;;;;;;5069527;28;20463;-82
2021/07/09 00:41:13;;;;;;;12.13;10.83;;;19.50;99.90;;;;;;5069893;28;20561;-82
2021/07/09 00:43:40;;;;;;;10.47;9.50;;;19.50;99.90;;;;;;5068419;28;20493;-84
2021/07/09 00:46:08;;;;;;;19.17;10.97;;;19.50;99.90;;;;;;5068564;28;20993;-84
2021/07/09 00:48:36;;;;;;;10.97;9.83;;;19.50;99.90;;;;;;5067369;28;20795;-84
2021/07/09 00:51:05;;;;;;;14.13;10.97;;;19.50;99.90;;;;;;5069022;28;20470;-84
2021/07/09 00:53:32;;;;;;;12.00;10.67;;;19.50;99.90;;;;;;5069330;28;20820;-84
2021/07/09 00:55:59;;;;;;;10.47;9.57;;;19.50;99.90;;;;;;5068815;28;21162;-82
2021/07/09 00:58:26;;;;;;;10.93;9.77;;;19.50;99.90;;;;;;5067467;28;22550;-82
2021/07/09 01:00:53;;;;;;;12.30;10.20;;;19.50;99.90;;;;;;5066803;28;20555;-84
2021/07/09 01:03:22;;;;;;;11.80;10.60;;;19.50;99.90;;;;;;5070397;28;20480;-82
2021/07/09 01:05:48;;;;;;;14.50;9.73;;;19.40;99.90;;;;;;5069784;28;21278;-82
2021/07/09 01:08:16;;;;;;;11.83;10.73;;;19.40;99.90;;;;;;5069370;28;20817;-83
2021/07/09 01:10:44;;;;;;;10.67;9.60;;;19.40;99.90;;;;;;5069364;28;20454;-82
2021/07/09 01:13:11;;;;;;;13.30;12.00;;;19.40;99.90;;;;;;5066782;28;20481;-82
2021/07/09 01:15:38;;;;;;;12.80;10.07;;;19.40;99.90;;;;;;5069690;28;20466;-83
2021/07/09 01:18:05;;;;;;;11.67;10.17;;;19.40;99.90;;;;;;5070605;28;20450;-84
2021/07/09 01:20:33;;;;;;;13.40;10.73;;;19.40;99.90;;;;;;5069453;28;20790;-82
2021/07/09 01:23:02;;;;;;;12.17;11.00;;;19.40;99.90;;;;;;5063905;28;20825;-84
2021/07/09 01:25:31;;;;;;;13.07;11.60;;;19.40;99.90;;;;;;5062502;28;20498;-84
2021/07/09 01:28:01;;;;;;;17.33;12.33;;;19.40;99.90;;;;;;5064359;28;20466;-82
2021/07/09 01:30:28;;;;;;;14.57;11.13;;;19.40;99.90;;;;;;5065466;28;20462;-83
2021/07/09 01:32:56;;;;;;;15.13;12.13;;;19.40;99.90;;;;;;5063230;28;20459;-83
2021/07/09 01:35:25;;;;;;;12.30;11.07;;;19.40;99.90;;;;;;5065546;28;20965;-82
2021/07/09 01:37:56;;;;;;;12.37;11.17;;;19.40;99.90;;;;;;5065811;28;20470;-82
2021/07/09 01:40:24;;;;;;;14.00;12.23;;;19.40;99.90;;;;;;5063144;28;20472;-82
2021/07/09 01:42:52;;;;;;;18.73;11.73;;;19.40;99.90;;;;;;5061348;28;20466;-84
2021/07/09 01:45:20;;;;;;;12.47;10.90;;;19.40;99.90;;;;;;5061519;28;20613;-85
2021/07/09 01:47:47;;;;;;;13.87;12.40;;;19.40;99.90;;;;;;5057752;28;20847;-84
2021/07/09 01:50:14;;;;;;;13.23;11.80;;;19.40;99.90;;;;;;5064176;28;20462;-82
2021/07/09 01:52:41;;;;;;;19.30;11.90;;;19.40;99.90;;;;;;5067911;28;20467;-83
2021/07/09 01:55:10;;;;;;;13.17;11.63;;;19.40;99.90;;;;;;5068512;28;20473;-83
2021/07/09 01:57:37;;;;;;;13.37;12.07;;;19.40;99.90;;;;;;5068345;28;21012;-84
2021/07/09 02:00:09;;;;;;;13.60;11.40;;;19.40;99.90;;;;;;5066822;28;20488;-82
2021/07/09 02:02:36;;;;;;;13.10;11.43;;;19.40;99.90;;;;;;5065480;28;20463;-82
2021/07/09 02:05:07;;;;;;;15.97;11.73;;;19.40;99.90;;;;;;5067893;28;20573;-84
2021/07/09 02:07:34;;;;;;;12.60;10.57;;;19.40;99.90;;;;;;5064316;28;20587;-82
2021/07/09 02:10:01;;;;;;;12.53;10.80;;;19.40;99.90;;;;;;5062955;28;20895;-83
2021/07/09 02:12:29;;;;;;;12.30;10.37;;;19.40;99.90;;;;;;5065194;28;20463;-83
2021/07/09 02:14:56;;;;;;;11.87;10.67;;;19.40;99.90;;;;;;5064237;28;20966;-84
2021/07/09 02:17:25;;;;;;;13.07;11.87;;;19.40;99.90;;;;;;5067324;28;20466;-82
2021/07/09 02:19:52;;;;;;;19.90;12.73;;;19.40;99.90;;;;;;5066102;28;20476;-84
2021/07/09 02:22:21;;;;;;;22.03;14.40;;;19.40;99.90;;;;;;5060653;28;20495;-84
2021/07/09 02:24:50;;;;;;;18.87;12.43;;;19.40;99.90;;;;;;5063584;28;20494;-83
2021/07/09 02:27:17;;;;;;;14.87;12.53;;;19.40;99.90;;;;;;5066289;28;20470;-84
2021/07/09 02:29:45;;;;;;;17.90;12.63;;;19.40;99.90;;;;;;5057222;28;20501;-82
2021/07/09 02:32:14;;;;;;;23.70;13.53;;;19.40;99.90;;;;;;5064706;28;20498;-82
2021/07/09 02:34:43;;;;;;;20.20;12.93;;;19.40;99.90;;;;;;5062435;28;20503;-84
2021/07/09 02:37:11;;;;;;;15.23;12.53;;;19.40;99.90;;;;;;5061838;28;20457;-82
2021/07/09 02:39:40;;;;;;;26.60;13.50;;;19.40;99.90;;;;;;5063327;28;20520;-82
2021/07/09 02:42:07;;;;;;;18.27;13.37;;;19.40;99.90;;;;;;5065134;28;20450;-82
2021/07/09 02:44:34;;;;;;;18.30;13.03;;;19.40;99.90;;;;;;5063157;28;20494;-82
2021/07/09 02:47:01;;;;;;;15.97;14.00;;;19.40;99.90;;;;;;5074413;28;20494;-84
2021/07/09 02:49:28;;;;;;;19.03;13.37;;;19.40;99.90;;;;;;5068214;28;20928;-82
2021/07/09 02:51:56;;;;;;;14.73;13.40;;;19.40;99.90;;;;;;5064304;28;20473;-85
2021/07/09 02:54:23;;;;;;;17.50;13.17;;;19.30;99.90;;;;;;5065875;28;20471;-85
2021/07/09 02:56:50;;;;;;;18.10;13.20;;;19.30;99.90;;;;;;5067082;28;20866;-82
2021/07/09 02:59:17;;;;;;;19.07;13.40;;;19.40;99.90;;;;;;5068227;28;20450;-82
2021/07/09 03:01:44;;;;;;;14.83;13.23;;;19.30;99.90;;;;;;5066337;28;20469;-82
2021/07/09 03:04:12;;;;;;;19.07;13.73;;;19.30;99.90;;;;;;5065036;28;20501;-84
2021/07/09 03:06:40;;;;;;;15.00;13.13;;;19.30;99.90;;;;;;5067420;28;20473;-82
2021/07/09 03:09:09;;;;;;;14.40;12.90;;;19.30;99.90;;;;;;5067426;28;20865;-85
2021/07/09 03:11:37;;;;;;;15.07;13.57;;;19.30;99.90;;;;;;5067545;28;20573;-83
2021/07/09 03:14:05;;;;;;;20.13;14.23;;;19.30;99.90;;;;;;5067633;28;20473;-82
2021/07/09 03:16:32;;;;;;;16.80;13.13;;;19.30;99.90;;;;;;5068803;28;20911;-83
2021/07/09 03:18:59;;;;;;;18.37;13.43;;;19.30;99.90;;;;;;5067476;28;20486;-83
2021/07/09 03:21:26;;;;;;;19.63;14.10;;;19.30;99.90;;;;;;5067285;28;20463;-85
2021/07/09 03:23:53;;;;;;;19.77;14.40;;;19.30;99.90;;;;;;5066053;28;20523;-82
2021/07/09 03:26:21;;;;;;;14.60;13.10;;;19.30;99.90;;;;;;5067551;28;20469;-84
2021/07/09 03:28:48;;;;;;;16.87;13.30;;;19.30;99.90;;;;;;5068437;28;20466;-82
2021/07/09 03:31:15;;;;;;;22.43;14.83;;;19.30;99.90;;;;;;5067075;28;20462;-82
2021/07/09 03:33:41;;;;;;;17.50;13.70;;;19.30;99.90;;;;;;5066208;28;20803;-82
2021/07/09 03:36:08;;;;;;;16.37;13.10;;;19.30;99.90;;;;;;5066162;28;20466;-82
2021/07/09 03:38:35;;;;;;;14.67;12.83;;;19.30;99.90;;;;;;5067043;28;20466;-84
2021/07/09 03:41:02;;;;;;;17.20;14.00;;;19.30;99.90;;;;;;5067473;28;20461;-82
2021/07/09 03:43:30;;;;;;;14.30;12.90;;;19.30;99.90;;;;;;5066894;28;20525;-82
2021/07/09 03:45:57;;;;;;;17.40;14.10;;;19.30;99.90;;;;;;5067056;28;20494;-82
2021/07/09 03:48:24;;;;;;;17.20;13.47;;;19.30;99.90;;;;;;5065336;28;20979;-82
2021/07/09 03:50:51;;;;;;;17.10;14.33;;;19.30;99.90;;;;;;5072615;28;20470;-82
2021/07/09 03:53:18;;;;;;;16.10;12.90;;;19.30;99.90;;;;;;5067276;28;20466;-82
2021/07/09 03:55:45;;;;;;;18.57;14.03;;;19.30;99.90;;;;;;5067202;28;20557;-84
2021/07/09 03:58:11;;;;;;;23.77;14.43;;;19.30;99.90;;;;;;5067934;28;20501;-82
2021/07/09 04:00:40;;;;;;;19.50;15.90;;;19.30;99.90;;;;;;5066351;28;20786;-83
2021/07/09 04:03:07;;;;;;;16.60;14.90;;;19.30;99.90;;;;;;5065835;28;20569;-82
2021/07/09 04:05:33;;;;;;;18.90;14.10;;;19.30;99.90;;;;;;5060153;28;20478;-82
2021/07/09 04:08:00;;;;;;;16.73;14.93;;;19.30;99.90;;;;;;5066099;28;20477;-82
2021/07/09 04:10:27;;;;;;;17.83;15.53;;;19.30;99.90;;;;;;5066406;28;20467;-82
2021/07/09 04:12:54;;;;;;;17.03;13.90;;;19.30;99.90;;;;;;5068779;28;20472;-82
2021/07/09 04:15:21;;;;;;;22.70;14.77;;;19.30;99.90;;;;;;5071655;28;20458;-83
2021/07/09 04:17:49;;;;;;;18.47;15.23;;;19.20;99.90;;;;;;5072546;28;20459;-82
2021/07/09 04:20:16;;;;;;;21.60;15.33;;;19.20;99.90;;;;;;5068903;28;20560;-82
2021/07/09 04:22:44;;;;;;;17.03;15.23;;;19.30;99.90;;;;;;5071803;28;20470;-82
2021/07/09 04:25:12;;;;;;;20.07;14.07;;;19.20;99.90;;;;;;5068843;28;20499;-82
2021/07/09 04:27:40;;;;;;;20.97;14.70;;;19.20;99.90;;;;;;5068894;28;20974;-82
2021/07/09 04:30:09;;;;;;;20.90;15.37;;;19.30;99.90;;;;;;5070620;28;20461;-84
2021/07/09 04:32:36;;;;;;;23.07;14.70;;;19.20;99.90;;;;;;5068600;28;20556;-83
2021/07/09 04:35:06;;;;;;;22.73;15.20;;;19.30;99.90;;;;;;5066898;28;20986;-83
2021/07/09 04:37:32;;;;;;;19.23;14.57;;;19.30;99.90;;;;;;5064837;28;20471;-83
2021/07/09 04:39:59;;;;;;;20.00;14.83;;;19.30;99.90;;;;;;5063991;28;20817;-82
2021/07/09 04:42:26;;;;;;;22.10;15.97;;;19.30;99.90;;;;;;5069239;28;20471;-84
2021/07/09 04:44:53;;;;;;;29.10;15.10;;;19.30;99.90;;;;;;5070743;28;20486;-82
2021/07/09 04:47:20;;;;;;;22.43;14.97;;;19.30;99.90;;;;;;5068861;28;20509;-83
2021/07/09 04:49:47;;;;;;;22.70;14.57;;;19.40;99.90;;;;;;5069839;28;20455;-83
2021/07/09 04:52:15;;;;;;;19.20;16.03;;;19.40;99.90;;;;;;5066888;28;20467;-83
2021/07/09 04:54:42;;;;;;;20.03;16.13;;;19.40;99.90;;;;;;5067947;28;20513;-83
2021/07/09 04:57:09;;;;;;;21.47;15.63;;;19.40;99.90;;;;;;5071045;28;20490;-84
2021/07/09 04:59:36;;;;;;;26.53;15.50;;;19.40;99.90;;;;;;5069439;28;20465;-83
2021/07/09 05:02:03;;;;;;;17.77;15.57;;;19.40;99.90;;;;;;5069922;28;21072;-83
2021/07/09 05:04:30;;;;;;;18.07;15.40;;;19.40;99.90;;;;;;5068202;28;20492;-82
2021/07/09 05:06:58;;;;;;;16.60;14.73;;;19.40;99.90;;;;;;5064319;28;20887;-85
2021/07/09 05:09:26;;;;;;;16.27;14.57;;;19.40;99.90;;;;;;5065386;28;20823;-83
2021/07/09 05:11:53;;;;;;;17.90;14.80;;;19.40;99.90;;;;;;5065184;28;20563;-83
2021/07/09 05:14:20;;;;;;;21.90;16.80;;;19.40;99.90;;;;;;5061309;28;20489;-83
2021/07/09 05:16:47;;;;;;;22.73;17.23;;;19.40;99.90;;;;;;5066263;28;20813;-83
2021/07/09 05:19:14;;;;;;;18.63;15.40;;;19.30;99.90;;;;;;5069551;28;20557;-84
2021/07/09 05:21:41;;;;;;;19.23;15.20;;;19.30;99.90;;;;;;5065565;28;20486;-83
2021/07/09 05:24:10;;;;;;;25.93;16.97;;;19.30;99.90;;;;;;5065905;28;20807;-82
2021/07/09 05:26:39;;;;;;;22.60;14.70;;;19.30;99.90;;;;;;5064317;28;20829;-83
2021/07/09 05:29:06;;;;;;;20.20;16.20;;;19.30;99.90;;;;;;5065662;28;20486;-85
2021/07/09 05:31:33;;;;;;;24.13;14.93;;;19.40;99.90;;;;;;5064103;28;20466;-83
2021/07/09 05:34:00;;;;;;;22.80;15.93;;;19.30;99.90;;;;;;5068827;28;20489;-82
2021/07/09 05:36:27;;;;;;;20.20;15.37;;;19.40;99.90;;;;;;5065810;28;20470;-83
2021/07/09 05:38:54;;;;;;;20.83;17.50;;;19.40;99.90;;;;;;5067241;28;20465;-82
2021/07/09 05:41:21;;;;;;;18.80;16.40;;;19.40;99.90;;;;;;5065260;28;20462;-84
2021/07/09 05:43:49;;;;;;;18.70;15.07;;;19.50;99.90;;;;;;5062672;28;20454;-82
2021/07/09 05:46:16;;;;;;;23.27;16.30;;;19.50;99.90;;;;;;5066682;28;20826;-82
2021/07/09 05:48:43;;;;;;;22.53;16.70;;;19.50;99.90;;;;;;5066399;28;20451;-82
2021/07/09 05:51:10;;;;;;;18.40;16.47;;;19.50;99.90;;;;;;5067847;28;20457;-82
2021/07/09 05:53:37;;;;;;;19.20;15.30;;;19.60;99.90;;;;;;5069383;28;20457;-82
2021/07/09 05:56:05;;;;;;;20.47;16.33;;;19.60;99.90;;;;;;5068829;28;20466;-82
2021/07/09 05:58:32;;;;;;;24.03;16.40;;;19.60;99.90;;;;;;5066297;28;20451;-82
2021/07/09 06:01:00;;;;;;;22.20;16.10;;;19.60;99.90;;;;;;5064090;28;20477;-83
2021/07/09 06:03:27;;;;;;;21.33;16.13;;;19.60;99.90;;;;;;5067894;28;20508;-83
2021/07/09 06:05:54;;;;;;;17.20;14.20;;;19.60;99.90;;;;;;5068963;28;21012;-82
2021/07/09 06:08:21;;;;;;;18.20;15.43;;;19.60;99.90;;;;;;5069349;28;20458;-82
2021/07/09 06:10:48;;;;;;;20.63;14.83;;;19.60;99.90;;;;;;5067643;28;20934;-82
2021/07/09 06:13:15;;;;;;;20.57;14.90;;;19.60;99.90;;;;;;5067482;28;20464;-84
2021/07/09 06:15:42;;;;;;;26.40;15.13;;;19.50;99.90;;;;;;5067729;28;20477;-84
2021/07/09 06:18:10;;;;;;;18.40;14.70;;;19.50;99.90;;;;;;5063816;28;20466;-81
2021/07/09 06:20:37;;;;;;;19.73;15.83;;;19.50;99.90;;;;;;5068349;28;20472;-82
2021/07/09 06:23:04;;;;;;;17.00;14.40;;;19.50;99.90;;;;;;5067256;28;20825;-82
2021/07/09 06:25:31;;;;;;;19.47;13.50;;;19.50;99.90;;;;;;5067745;28;20494;-82
2021/07/09 06:27:58;;;;;;;20.70;15.07;;;19.50;99.90;;;;;;5061052;28;20979;-82
2021/07/09 06:30:25;;;;;;;23.20;16.27;;;19.50;99.90;;;;;;5058310;28;20443;-81
2021/07/09 06:32:53;;;;;;;18.83;14.60;;;19.50;99.90;;;;;;5062255;28;20528;-81
2021/07/09 06:35:21;;;;;;;19.63;14.30;;;19.50;99.90;;;;;;5066254;28;20489;-84
2021/07/09 06:37:48;;;;;;;21.57;15.07;;;19.50;99.90;;;;;;5062829;28;20497;-84
2021/07/09 06:40:15;;;;;;;22.93;14.90;;;19.50;99.90;;;;;;5059702;28;20451;-83
2021/07/09 06:42:42;;;;;;;24.30;15.53;;;19.50;99.90;;;;;;5068026;28;20465;-82
2021/07/09 06:45:10;;;;;;;21.87;15.30;;;19.50;99.90;;;;;;5069029;28;20494;-82
2021/07/09 06:47:37;;;;;;;23.27;16.03;;;19.50;99.90;;;;;;5067613;28;20479;-83
2021/07/09 06:50:05;;;;;;;20.47;15.20;;;19.50;99.90;;;;;;5067591;28;20821;-82
2021/07/09 06:52:33;;;;;;;19.50;14.40;;;19.50;99.90;;;;;;5066876;28;20458;-81
2021/07/09 06:55:00;;;;;;;17.87;13.27;;;19.50;99.90;;;;;;5067097;28;20989;-82
2021/07/09 06:57:27;;;;;;;22.27;15.67;;;19.50;99.90;;;;;;5067329;28;20462;-82
2021/07/09 06:59:54;;;;;;;20.07;13.83;;;19.50;99.90;;;;;;5068708;28;20469;-84
2021/07/09 07:02:21;;;;;;;23.67;14.13;;;19.50;99.90;;;;;;5065946;28;20466;-82
2021/07/09 07:04:47;;;;;;;15.80;12.73;;;19.50;99.90;;;;;;5066099;28;20554;-82
2021/07/09 07:07:14;;;;;;;17.33;13.70;;;19.50;99.90;;;;;;5066376;28;21016;-82
2021/07/09 07:09:42;;;;;;;24.67;13.27;;;19.50;99.90;;;;;;5065560;28;20463;-82
2021/07/09 07:12:09;;;;;;;19.50;14.00;;;19.50;99.90;;;;;;5065400;28;20497;-82
2021/07/09 07:14:37;;;;;;;19.00;13.97;;;19.50;99.90;;;;;;5063439;28;20567;-82
2021/07/09 07:17:04;;;;;;;18.83;14.53;;;19.50;99.90;;;;;;5061136;28;20634;-83
2021/07/09 07:19:31;;;;;;;19.60;12.40;;;19.50;99.90;;;;;;5062374;28;20455;-82
2021/07/09 07:22:02;;;;;;;17.27;13.33;;;19.60;99.90;;;;;;5068293;28;20494;-82
2021/07/09 07:24:29;;;;;;;21.07;14.43;;;19.50;99.90;;;;;;5066651;28;20938;-82
2021/07/09 07:26:57;;;;;;;23.23;14.17;;;19.60;99.90;;;;;;5065141;28;20491;-82
2021/07/09 07:29:24;;;;;;;15.97;13.20;;;19.60;99.90;;;;;;5061427;28;20946;-82
2021/07/09 07:31:52;;;;;;;19.50;12.40;;;19.60;99.90;;;;;;5064907;28;20472;-83
2021/07/09 07:34:19;;;;;;;21.90;14.03;;;19.70;99.90;;;;;;5065478;28;20469;-82
2021/07/09 07:36:46;;;;;;;23.27;13.67;;;19.70;99.90;;;;;;5067285;28;20472;-81
2021/07/09 07:39:13;;;;;;;16.37;12.57;;;19.70;99.90;;;;;;5059736;28;20466;-82
2021/07/09 07:41:40;;;;;;;15.77;13.03;;;19.70;99.90;;;;;;5064652;28;20472;-82
2021/07/09 07:44:08;;;;;;;15.17;12.10;;;19.80;99.90;;;;;;5066780;28;20459;-82
2021/07/09 07:46:36;;;;;;;20.40;12.50;;;19.80;99.90;;;;;;5065851;28;20842;-82
2021/07/09 07:49:03;;;;;;;17.10;11.57;;;19.80;99.90;;;;;;5065641;28;20469;-82
2021/07/09 07:51:30;;;;;;;16.10;11.93;;;19.80;99.90;;;;;;5068510;28;20973;-84
2021/07/09 07:53:57;;;;;;;16.13;12.57;;;19.90;99.90;;;;;;5070072;28;20458;-82
2021/07/09 07:56:24;;;;;;;14.93;11.37;;;19.90;99.90;;;;;;5070311;28;20494;-82
2021/07/09 07:58:53;;;;;;;15.93;10.70;;;20.00;99.90;;;;;;5070376;28;20485;-83
2021/07/09 08:01:21;;;;;;;13.10;11.20;;;20.00;99.90;;;;;;5072496;28;20840;-86
2021/07/09 08:03:48;;;;;;;11.40;10.10;;;20.00;99.90;;;;;;5067745;28;20470;-82
2021/07/09 08:06:15;;;;;;;13.03;10.60;;;20.10;99.90;;;;;;5070182;28;20502;-82
2021/07/09 08:08:43;;;;;;;13.00;10.00;;;20.10;99.90;;;;;;5068647;28;20484;-82
2021/07/09 08:11:11;;;;;;;14.00;10.60;;;20.20;99.90;;;;;;5067168;28;20470;-83
2021/07/09 08:13:39;;;;;;;12.63;10.70;;;20.20;99.90;;;;;;5060656;28;20540;-82
2021/07/09 08:16:06;;;;;;;17.23;10.83;;;20.20;99.90;;;;;;5067750;28;20542;-84
2021/07/09 08:18:35;;;;;;;15.60;10.20;;;20.30;99.90;;;;;;5066724;28;20800;-83
2021/07/09 08:21:02;;;;;;;15.53;10.70;;;20.30;99.90;;;;;;5062701;28;20465;-83
2021/07/09 08:23:29;;;;;;;13.27;10.10;;;20.40;99.90;;;;;;5067300;28;20463;-82
2021/07/09 08:25:56;;;;;;;14.87;9.73;;;20.50;99.90;;;;;;5066169;28;20486;-84
2021/07/09 08:28:23;;;;;;;11.60;10.17;;;20.50;99.90;;;;;;5066087;28;20470;-83
2021/07/09 08:30:50;;;;;;;13.53;10.17;;;20.60;99.90;;;;;;5065841;28;20804;-83
2021/07/09 08:33:17;;;;;;;14.17;10.10;;;20.70;99.90;;;;;;5064320;28;20471;-83
2021/07/09 08:35:45;;;;;;;16.33;10.63;;;20.80;99.90;;;;;;5065248;28;20840;-83
2021/07/09 08:38:13;;;;;;;11.87;9.20;;;20.90;99.90;;;;;;5067361;28;20459;-83
2021/07/09 08:40:40;;;;;;;10.10;8.70;;;21.00;99.90;;;;;;5066711;28;20462;-83
2021/07/09 08:43:07;;;;;;;18.93;10.60;;;21.00;99.90;;;;;;5066773;28;20473;-83
2021/07/09 08:45:34;;;;;;;9.93;8.70;;;21.10;99.90;;;;;;5073586;28;20909;-82
2021/07/09 08:48:02;;;;;;;13.10;8.17;;;21.20;99.90;;;;;;5074764;28;20490;-83
2021/07/09 08:50:29;;;;;;;9.63;7.97;;;21.20;99.90;;;;;;5070271;28;20869;-86
2021/07/09 08:52:57;;;;;;;11.13;8.03;;;21.30;99.90;;;;;;5071081;28;20463;-84
2021/07/09 08:55:24;;;;;;;10.37;8.37;;;21.40;99.90;;;;;;5069093;28;20466;-85
2021/07/09 08:57:51;;;;;;;11.40;9.00;;;21.40;99.90;;;;;;5069315;28;20477;-83
2021/07/09 09:00:45;;;;;;;16.07;8.93;;;21.50;99.90;;;;;;5069250;28;20483;-84
2021/07/09 09:03:18;;;;;;;11.20;7.53;;;21.60;99.90;;;;;;5032511;28;20464;-82
2021/07/09 09:05:45;;;;;;;14.07;9.77;;;21.70;99.90;;;;;;5068234;28;20502;-82
2021/07/09 09:08:17;;;;;;;9.10;7.57;;;21.80;99.90;;;;;;5070021;28;20459;-82
2021/07/09 09:10:45;;;;;;;11.17;8.90;;;22.00;99.90;;;;;;5072230;28;20469;-83
2021/07/09 09:13:16;;;;;;;9.37;7.60;;;22.10;99.90;;;;;;5070613;28;20476;-85
2021/07/09 09:15:45;;;;;;;14.20;10.93;;;22.20;99.90;;;;;;5068668;28;20500;-85
2021/07/09 09:18:22;;;;;;;12.13;10.30;;;22.20;99.90;;;;;;5069288;28;20465;-85
2021/07/09 09:20:57;;;;;;;13.90;9.30;;;22.30;99.90;;;;;;5062780;28;20459;-83
2021/07/09 09:23:26;;;;;;;10.93;8.10;;;22.40;99.90;;;;;;5070866;28;20462;-82
2021/07/09 09:25:53;;;;;;;9.40;8.07;;;22.40;99.90;;;;;;5071291;28;20485;-84
2021/07/09 09:28:20;;;;;;;13.23;9.23;;;22.50;99.90;;;;;;5074104;28;20465;-86
2021/07/09 09:30:52;;;;;;;11.60;8.93;;;22.50;99.90;;;;;;5070943;28;20893;-83
2021/07/09 09:33:19;;;;;;;17.50;8.67;;;22.60;99.90;;;;;;5062913;28;21045;-82
2021/07/09 09:35:48;;;;;;;10.13;8.07;;;22.60;99.90;;;;;;5068908;28;20946;-83
2021/07/09 09:38:17;;;;;;;9.53;7.67;;;22.70;99.90;;;;;;5069565;28;20879;-83
2021/07/09 09:40:46;;;;;;;8.10;6.50;;;22.70;99.90;;;;;;5068819;28;20466;-85
2021/07/09 09:43:15;;;;;;;7.37;6.50;;;22.90;99.90;;;;;;5068536;28;20616;-84
2021/07/09 09:45:44;;;;;;;12.17;7.67;;;23.00;99.90;;;;;;5066794;28;20573;-83
2021/07/09 09:48:13;;;;;;;8.60;7.63;;;23.10;99.90;;;;;;5062857;28;20485;-83
2021/07/09 09:50:45;;;;;;;8.80;7.63;;;23.30;99.90;;;;;;5069851;28;20462;-83
2021/07/09 09:53:12;;;;;;;10.60;8.60;;;23.40;99.90;;;;;;5068967;28;20466;-83
2021/07/09 09:55:39;;;;;;;10.40;8.37;;;23.50;99.90;;;;;;5067340;28;21029;-85
2021/07/09 09:58:15;;;;;;;10.00;7.70;;;23.60;99.90;;;;;;5067667;28;20845;-83
2021/07/09 10:00:44;;;;;;;10.53;8.10;;;23.70;99.90;;;;;;5061816;28;20458;-83
2021/07/09 10:03:11;;;;;;;10.80;8.33;;;23.70;99.90;;;;;;5064556;28;20462;-83
2021/07/09 10:05:42;;;;;;;11.37;8.60;;;23.80;99.90;;;;;;5067750;28;20474;-83
2021/07/09 10:08:11;;;;;;;11.03;8.13;;;23.80;99.90;;;;;;5064418;28;20481;-83
2021/07/09 10:10:39;;;;;;;7.20;6.50;;;23.80;99.90;;;;;;5064335;28;20490;-84
2021/07/09 10:13:07;;;;;;;13.63;8.40;;;23.80;99.90;;;;;;5065088;28;20550;-83
2021/07/09 10:15:35;;;;;;;14.00;7.83;;;23.80;99.90;;;;;;5067829;28;20466;-83
2021/07/09 10:18:03;;;;;;;8.80;7.30;;;23.80;99.90;;;;;;5067462;28;20965;-84
2021/07/09 10:20:30;;;;;;;8.33;7.43;;;23.80;99.90;;;;;;5067745;28;20471;-85
2021/07/09 10:22:59;;;;;;;9.37;6.63;;;23.80;99.90;;;;;;5069237;28;20462;-84
2021/07/09 10:25:27;;;;;;;7.27;5.57;;;23.90;99.90;;;;;;5067732;28;20773;-85
2021/07/09 10:27:55;;;;;;;7.57;5.70;;;23.90;99.90;;;;;;5066949;28;20483;-83
2021/07/09 10:30:22;;;;;;;7.97;5.93;;;23.90;99.90;;;;;;5067589;28;20459;-83
2021/07/09 10:32:50;;;;;;;10.50;5.37;;;24.00;99.90;;;;;;5065551;28;20467;-84
2021/07/09 10:35:34;;;;;;;6.13;4.60;;;24.10;99.90;;;;;;5068682;28;20553;-83
2021/07/09 10:38:10;;;;;;;5.27;4.77;;;24.10;99.90;;;;;;5065540;28;20565;-83
2021/07/09 10:40:37;;;;;;;5.90;4.87;;;24.10;99.90;;;;;;5065472;28;20463;-82
2021/07/09 10:43:05;;;;;;;7.90;4.50;;;24.20;99.90;;;;;;5061352;28;20467;-85
2021/07/09 10:45:32;;;;;;;5.00;4.50;;;24.20;99.90;;;;;;5068641;28;20578;-85
2021/07/09 10:48:09;;;;;;;6.37;5.70;;;24.20;99.90;;;;;;5068436;28;20494;-83
2021/07/09 10:50:39;;;;;;;6.47;5.77;;;24.30;99.90;;;;;;5067158;28;20450;-83
2021/07/09 10:53:08;;;;;;;7.00;6.30;;;24.30;99.90;;;;;;5067096;28;20554;-83
2021/07/09 10:55:50;;;;;;;8.57;6.57;;;24.30;99.90;;;;;;5066928;28;20466;-82
2021/07/09 10:58:27;;;;;;;10.47;5.77;;;24.30;99.90;;;;;;5063842;28;20537;-83
2021/07/09 11:00:57;;;;;;;9.57;6.37;;;24.30;99.90;;;;;;5064160;28;20462;-83
2021/07/09 11:07:21;;;;;;;6.53;5.93;;;24.30;99.90;;;;;;5003325;28;20809;-83
2021/07/09 11:09:48;;;;;;;8.53;5.67;;;24.40;99.90;;;;;;5065361;28;20564;-84
2021/07/09 11:12:29;;;;;;;7.00;5.63;;;24.40;99.90;;;;;;5067574;28;20489;-84
2021/07/09 11:14:59;;;;;;;6.30;5.13;;;24.50;99.90;;;;;;5058362;28;22460;-84
2021/07/09 11:17:25;;;;;;;7.97;5.60;;;24.50;99.90;;;;;;5066364;28;20508;-84
2021/07/09 11:20:13;;;;;;;6.30;5.67;;;24.60;99.90;;;;;;5066251;28;20459;-85
2021/07/09 11:22:41;;;;;;;6.20;5.60;;;24.60;99.90;;;;;;5066278;28;20459;-84
2021/07/09 11:25:09;;;;;;;6.60;6.00;;;24.60;99.90;;;;;;5069029;28;20462;-83
2021/07/09 11:27:43;;;;;;;6.27;5.10;;;24.70;99.90;;;;;;5070781;28;20493;-84
2021/07/09 11:30:13;;;;;;;6.27;5.63;;;24.80;99.90;;;;;;5067530;28;20473;-83
2021/07/09 11:32:40;;;;;;;8.00;5.37;;;24.90;99.90;;;;;;5070694;28;20463;-83
2021/07/09 11:35:08;;;;;;;7.23;5.77;;;25.00;99.90;;;;;;5072302;28;20473;-83
2021/07/09 11:37:37;;;;;;;6.50;5.20;;;25.10;99.90;;;;;;5070374;28;20454;-85
2021/07/09 11:40:08;;;;;;;5.90;5.30;;;25.20;99.90;;;;;;5070702;28;20520;-84
2021/07/09 11:42:37;;;;;;;9.10;5.30;;;25.30;99.90;;;;;;5070732;28;20535;-84
2021/07/09 11:45:07;;;;;;;6.60;5.80;;;25.40;99.90;;;;;;5070585;28;20584;-87
2021/07/09 11:47:35;;;;;;;9.27;5.67;;;25.50;99.90;;;;;;5071087;28;20521;-84
2021/07/09 11:50:06;;;;;;;10.10;5.90;;;25.60;99.90;;;;;;5069397;28;20462;-85
2021/07/09 11:52:35;;;;;;;6.63;5.90;;;25.60;99.90;;;;;;5070218;28;20553;-84
2021/07/09 11:55:05;;;;;;;6.63;5.63;;;25.60;99.90;;;;;;5070335;28;20970;-85
2021/07/09 11:57:36;;;;;;;6.43;5.83;;;25.60;99.90;;;;;;5067997;28;20512;-86
2021/07/09 12:00:07;;;;;;;7.27;6.10;;;25.60;99.90;;;;;;5070276;28;20549;-84
2021/07/09 12:02:34;;;;;;;7.53;6.40;;;25.60;99.90;;;;;;5071197;28;20462;-85
2021/07/09 12:05:04;;;;;;;6.90;6.30;;;25.60;99.90;;;;;;5068986;28;20465;-84
2021/07/09 12:07:32;;;;;;;8.43;7.10;;;25.70;99.90;;;;;;5070654;28;21019;-86
2021/07/09 12:10:07;;;;;;;8.23;7.03;;;25.80;99.90;;;;;;5067824;28;20462;-84
2021/07/09 12:12:39;;;;;;;8.70;7.10;;;25.80;99.90;;;;;;5066735;28;20812;-84
2021/07/09 12:15:09;;;;;;;6.27;5.67;;;25.70;99.90;;;;;;5068844;28;20465;-84
2021/07/09 12:17:37;;;;;;;8.60;7.30;;;25.80;99.90;;;;;;5069095;28;20455;-84
2021/07/09 12:20:16;;;;;;;8.13;7.30;;;25.80;99.90;;;;;;5068353;28;20557;-85
2021/07/09 12:22:48;;;;;;;9.57;7.00;;;25.80;99.90;;;;;;5071129;28;20466;-85
2021/07/09 12:25:18;;;;;;;8.07;7.37;;;25.90;99.90;;;;;;5070017;28;20454;-83
2021/07/09 12:27:47;;;;;;;8.00;6.67;;;25.90;99.90;;;;;;5070273;28;20565;-85
2021/07/09 12:30:16;;;;;;;7.07;6.43;;;26.10;99.90;;;;;;5070108;28;20464;-86
2021/07/09 12:32:48;;;;;;;7.20;6.50;;;26.20;99.90;;;;;;5069245;28;20469;-83
2021/07/09 12:35:16;;;;;;;8.40;7.60;;;26.30;99.90;;;;;;5060732;28;20458;-85
2021/07/09 12:37:43;;;;;;;7.93;6.63;;;26.50;99.90;;;;;;5069777;28;20832;-87
2021/07/09 12:40:16;;;;;;;9.30;8.40;;;26.60;99.90;;;;;;5070930;28;21233;-85
2021/07/09 12:42:44;;;;;;;8.37;7.57;;;26.70;99.90;;;;;;5070680;28;20459;-85